createdAt,value
2023-03-26T00:00:44.649Z,100.00
2023-03-26T00:01:45.832Z,100.00
2023-03-26T00:02:47.370Z,100.00
2023-03-26T00:03:49.346Z,100.00
2023-03-26T00:04:54.247Z,100.00
2023-03-26T00:06:02.644Z,100.00
2023-03-26T00:07:04.350Z,100.00
2023-03-26T00:08:06.457Z,100.00
2023-03-26T00:09:10.308Z,100.00
2023-03-26T00:10:11.796Z,100.00
2023-03-26T00:11:14.322Z,100.00
2023-03-26T00:12:15.593Z,100.00
2023-03-26T00:13:17.000Z,100.00
2023-03-26T00:14:18.262Z,100.00
2023-03-26T00:15:20.563Z,100.00
2023-03-26T00:16:21.973Z,100.00
2023-03-26T00:17:23.545Z,100.00
2023-03-26T00:18:25.284Z,100.00
2023-03-26T00:19:26.807Z,100.00
2023-03-26T00:20:29.288Z,100.00
2023-03-26T00:21:31.101Z,100.00
2023-03-26T00:22:32.638Z,100.00
2023-03-26T00:23:34.645Z,100.00
2023-03-26T00:24:36.043Z,100.00
2023-03-26T00:25:38.124Z,100.00
2023-03-26T00:26:39.335Z,100.00
2023-03-26T00:27:40.646Z,100.00
2023-03-26T00:28:42.628Z,100.00
2023-03-26T00:29:44.126Z,100.00
2023-03-26T00:30:45.473Z,100.00
2023-03-26T00:31:46.854Z,100.00
2023-03-26T00:32:53.480Z,100.00
2023-03-26T00:34:00.150Z,100.00
2023-03-26T00:35:01.591Z,100.00
2023-03-26T00:36:05.889Z,100.00
2023-03-26T00:37:07.243Z,100.00
2023-03-26T00:38:08.549Z,100.00
2023-03-26T00:39:11.378Z,100.00
2023-03-26T00:40:12.850Z,100.00
2023-03-26T00:41:15.739Z,100.00
2023-03-26T00:42:16.980Z,100.00
2023-03-26T00:43:19.467Z,100.00
2023-03-26T00:44:21.362Z,100.00
2023-03-26T00:45:23.848Z,100.00
2023-03-26T00:46:26.213Z,100.00
2023-03-26T00:47:28.514Z,100.00
2023-03-26T00:48:44.149Z,100.00
2023-03-26T00:49:47.045Z,100.00
2023-03-26T00:50:49.276Z,100.00
2023-03-26T00:51:50.712Z,100.00
2023-03-26T00:52:53.065Z,100.00
2023-03-26T00:53:54.863Z,100.00
2023-03-26T00:54:56.109Z,100.00
2023-03-26T00:55:57.966Z,100.00
2023-03-26T00:56:59.543Z,100.00
2023-03-26T00:58:00.979Z,100.00
2023-03-26T00:59:02.242Z,100.00
2023-03-26T01:00:06.698Z,100.00
2023-03-26T01:01:10.068Z,100.00
2023-03-26T01:02:13.079Z,100.00
2023-03-26T01:03:26.790Z,100.00
2023-03-26T01:04:31.072Z,100.00
2023-03-26T01:05:32.957Z,100.00
2023-03-26T01:06:34.807Z,100.00
2023-03-26T01:07:37.481Z,100.00
2023-03-26T01:08:43.675Z,100.00
2023-03-26T01:09:45.798Z,100.00
2023-03-26T01:10:47.255Z,100.00
2023-03-26T01:11:49.791Z,100.00
2023-03-26T01:12:51.199Z,100.00
2023-03-26T01:13:57.743Z,100.00
2023-03-26T01:15:00.437Z,100.00
2023-03-26T01:16:02.320Z,100.00
2023-03-26T01:17:06.164Z,100.00
2023-03-26T01:18:07.608Z,100.00
2023-03-26T01:19:18.844Z,100.00
2023-03-26T01:20:22.239Z,100.00
2023-03-26T01:21:24.704Z,100.00
2023-03-26T01:22:27.118Z,100.00
2023-03-26T01:23:36.747Z,100.00
2023-03-26T01:24:38.751Z,100.00
2023-03-26T01:25:44.367Z,100.00
2023-03-26T01:26:48.551Z,100.00
2023-03-26T01:27:55.514Z,100.00
2023-03-26T01:28:59.057Z,100.00
2023-03-26T01:30:08.445Z,100.00
2023-03-26T01:31:26.167Z,100.00
2023-03-26T01:32:46.706Z,100.00
2023-03-26T01:33:52.117Z,100.00
2023-03-26T01:34:59.742Z,100.00
2023-03-26T01:36:01.046Z,100.00
2023-03-26T01:37:21.057Z,100.00
2023-03-26T01:38:36.957Z,100.00
2023-03-26T01:39:53.566Z,100.00
2023-03-26T01:40:58.798Z,100.00
2023-03-26T01:42:08.671Z,100.00
2023-03-26T01:43:17.730Z,100.00
2023-03-26T01:44:24.944Z,100.00
2023-03-26T01:45:28.238Z,100.00
2023-03-26T01:46:32.033Z,100.00
2023-03-26T01:47:34.732Z,100.00
2023-03-26T01:48:45.578Z,100.00
2023-03-26T01:49:46.937Z,100.00
2023-03-26T01:50:48.160Z,100.00
2023-03-26T01:51:50.481Z,100.00
2023-03-26T01:52:53.262Z,100.00
2023-03-26T01:53:55.191Z,100.00
2023-03-26T01:54:56.805Z,100.00
2023-03-26T01:56:11.255Z,100.00
2023-03-26T01:57:18.695Z,100.00
2023-03-26T01:58:27.908Z,100.00
2023-03-26T01:59:29.255Z,100.00
2023-03-26T02:00:35.700Z,100.00
2023-03-26T02:01:55.657Z,100.00
2023-03-26T02:03:15.689Z,100.00
2023-03-26T02:04:32.447Z,100.00
2023-03-26T02:05:36.951Z,100.00
2023-03-26T02:07:11.231Z,100.00
2023-03-26T02:08:23.893Z,100.00
2023-03-26T02:09:30.948Z,100.00
2023-03-26T02:10:35.503Z,100.00
2023-03-26T02:11:38.508Z,100.00
2023-03-26T02:12:42.824Z,100.00
2023-03-26T02:13:47.062Z,100.00
2023-03-26T02:14:48.790Z,100.00
2023-03-26T02:16:00.680Z,100.00
2023-03-26T02:17:03.093Z,100.00
2023-03-26T02:18:04.842Z,100.00
2023-03-26T02:19:06.106Z,100.00
2023-03-26T02:20:08.341Z,100.00
2023-03-26T02:21:15.346Z,100.00
2023-03-26T02:22:16.934Z,100.00
2023-03-26T02:23:21.613Z,100.00
2023-03-26T02:24:28.990Z,100.00
2023-03-26T02:25:34.813Z,100.00
2023-03-26T02:26:36.408Z,100.00
2023-03-26T02:27:43.659Z,100.00
2023-03-26T02:28:46.841Z,100.00
2023-03-26T02:29:49.031Z,100.00
2023-03-26T02:30:53.995Z,100.00
2023-03-26T02:31:56.291Z,100.00
2023-03-26T02:32:57.838Z,100.00
2023-03-26T02:33:59.557Z,100.00
2023-03-26T02:35:03.706Z,100.00
2023-03-26T02:36:05.222Z,100.00
2023-03-26T02:37:07.097Z,100.00
2023-03-26T02:38:09.310Z,100.00
2023-03-26T02:39:12.170Z,100.00
2023-03-26T02:40:13.788Z,100.00
2023-03-26T02:41:17.625Z,100.00
2023-03-26T02:42:31.862Z,100.00
2023-03-26T02:43:33.557Z,100.00
2023-03-26T02:44:35.274Z,100.00
2023-03-26T02:45:36.645Z,100.00
2023-03-26T02:47:12.786Z,100.00
2023-03-26T02:48:26.296Z,100.00
2023-03-26T02:49:33.693Z,100.00
2023-03-26T02:50:35.267Z,100.00
2023-03-26T02:52:05.283Z,100.00
2023-03-26T02:53:08.050Z,100.00
2023-03-26T02:54:12.670Z,100.00
2023-03-26T02:55:25.271Z,100.00
2023-03-26T02:56:29.506Z,100.00
2023-03-26T02:57:47.227Z,100.00
2023-03-26T02:58:53.755Z,100.00
2023-03-26T02:59:59.236Z,100.00
2023-03-26T03:01:12.812Z,100.00
2023-03-26T03:02:24.885Z,100.00
2023-03-26T03:03:31.828Z,100.00
2023-03-26T03:04:36.884Z,100.00
2023-03-26T03:05:38.296Z,100.00
2023-03-26T03:07:00.051Z,100.00
2023-03-26T03:08:06.044Z,100.00
2023-03-26T03:09:12.226Z,100.00
2023-03-26T03:10:14.010Z,100.00
2023-03-26T03:11:34.510Z,100.00
2023-03-26T03:12:38.831Z,100.00
2023-03-26T03:13:42.735Z,100.00
2023-03-26T03:14:44.150Z,100.00
2023-03-26T03:15:45.607Z,100.00
2023-03-26T03:16:47.058Z,100.00
2023-03-26T03:17:48.431Z,100.00
2023-03-26T03:18:49.971Z,100.00
2023-03-26T03:19:51.308Z,100.00
2023-03-26T03:20:52.711Z,100.00
2023-03-26T03:21:55.908Z,100.00
2023-03-26T03:22:57.204Z,100.00
2023-03-26T03:24:00.621Z,100.00
2023-03-26T03:25:05.767Z,100.00
2023-03-26T03:26:12.828Z,100.00
2023-03-26T03:27:14.684Z,100.00
2023-03-26T03:28:21.483Z,100.00
2023-03-26T03:29:22.778Z,100.00
2023-03-26T03:30:24.345Z,100.00
2023-03-26T03:31:44.041Z,100.00
2023-03-26T03:32:57.507Z,100.00
2023-03-26T03:34:01.638Z,100.00
2023-03-26T03:35:06.326Z,100.00
2023-03-26T03:36:09.535Z,100.00
2023-03-26T03:37:21.442Z,100.00
2023-03-26T03:38:26.761Z,100.00
2023-03-26T03:39:29.495Z,100.00
2023-03-26T03:40:30.935Z,100.00
2023-03-26T03:41:32.248Z,100.00
2023-03-26T03:42:35.949Z,100.00
2023-03-26T03:43:37.946Z,100.00
2023-03-26T03:44:52.261Z,100.00
2023-03-26T03:46:16.638Z,100.00
2023-03-26T03:47:20.424Z,100.00
2023-03-26T03:48:22.239Z,100.00
2023-03-26T03:49:23.798Z,100.00
2023-03-26T03:50:25.419Z,100.00
2023-03-26T03:51:41.286Z,100.00
2023-03-26T03:52:54.451Z,100.00
2023-03-26T03:53:55.756Z,100.00
2023-03-26T03:55:10.272Z,100.00
2023-03-26T03:56:19.990Z,100.00
2023-03-26T03:57:40.312Z,100.00
2023-03-26T03:58:46.263Z,100.00
2023-03-26T03:59:52.322Z,100.00
2023-03-26T04:00:54.486Z,100.00
2023-03-26T04:02:20.022Z,100.00
2023-03-26T04:03:33.534Z,100.00
2023-03-26T04:04:39.483Z,100.00
2023-03-26T04:05:47.935Z,100.00
2023-03-26T04:06:49.350Z,100.00
2023-03-26T04:07:51.322Z,100.00
2023-03-26T04:09:01.554Z,100.00
2023-03-26T04:10:04.014Z,100.00
2023-03-26T04:11:25.438Z,100.00
2023-03-26T04:13:02.320Z,100.00
2023-03-26T04:14:22.592Z,100.00
2023-03-26T04:15:31.616Z,100.00
2023-03-26T04:16:33.443Z,100.00
2023-03-26T04:17:35.051Z,100.00
2023-03-26T04:18:36.749Z,100.00
2023-03-26T04:19:44.143Z,100.00
2023-03-26T04:20:47.237Z,100.00
2023-03-26T04:21:54.948Z,100.00
2023-03-26T04:22:56.361Z,100.00
2023-03-26T04:24:00.543Z,100.00
2023-03-26T04:25:22.802Z,100.00
2023-03-26T04:26:32.623Z,100.00
2023-03-26T04:27:45.282Z,100.00
2023-03-26T04:29:01.472Z,100.00
2023-03-26T04:30:05.996Z,100.00
2023-03-26T04:31:09.303Z,100.00
2023-03-26T04:32:21.749Z,100.00
2023-03-26T04:33:23.232Z,100.00
2023-03-26T04:34:25.086Z,100.00
2023-03-26T04:35:53.045Z,100.00
2023-03-26T04:36:55.717Z,100.00
2023-03-26T04:38:02.690Z,100.00
2023-03-26T04:39:11.380Z,100.00
2023-03-26T04:40:33.493Z,100.00
2023-03-26T04:41:44.124Z,100.00
2023-03-26T04:42:51.501Z,100.00
2023-03-26T04:44:03.322Z,100.00
2023-03-26T04:45:24.040Z,100.00
2023-03-26T04:46:30.815Z,100.00
2023-03-26T04:47:42.919Z,100.00
2023-03-26T04:48:44.639Z,100.00
2023-03-26T04:49:47.190Z,100.00
2023-03-26T04:50:49.995Z,100.00
2023-03-26T04:51:54.222Z,100.00
2023-03-26T04:53:15.440Z,100.00
2023-03-26T04:54:36.769Z,100.00
2023-03-26T04:55:49.173Z,100.00
2023-03-26T04:57:03.283Z,100.00
2023-03-26T04:58:23.482Z,100.00
2023-03-26T04:59:33.741Z,100.00
2023-03-26T05:00:36.282Z,100.00
2023-03-26T05:01:38.001Z,100.00
2023-03-26T05:02:40.320Z,100.00
2023-03-26T05:03:42.286Z,100.00
2023-03-26T05:04:47.798Z,100.00
2023-03-26T05:05:51.299Z,100.00
2023-03-26T05:06:53.472Z,100.00
2023-03-26T05:08:07.369Z,100.00
2023-03-26T05:09:09.918Z,100.00
2023-03-26T05:10:30.017Z,100.00
2023-03-26T05:11:39.718Z,100.00
2023-03-26T05:12:42.477Z,100.00
2023-03-26T05:13:51.037Z,100.00
2023-03-26T05:14:52.946Z,100.00
2023-03-26T05:16:04.441Z,100.00
2023-03-26T05:17:30.053Z,100.00
2023-03-26T05:18:32.848Z,100.00
2023-03-26T05:19:36.846Z,100.00
2023-03-26T05:20:38.430Z,100.00
2023-03-26T05:21:42.014Z,100.00
2023-03-26T05:22:44.566Z,100.00
2023-03-26T05:23:54.030Z,100.00
2023-03-26T05:24:56.846Z,100.00
2023-03-26T05:25:58.138Z,100.00
2023-03-26T05:27:01.710Z,100.00
2023-03-26T05:28:03.358Z,100.00
2023-03-26T05:29:18.866Z,100.00
2023-03-26T05:30:24.599Z,100.00
2023-03-26T05:31:30.486Z,100.00
2023-03-26T05:32:33.450Z,100.00
2023-03-26T05:33:35.272Z,100.00
2023-03-26T05:34:41.543Z,100.00
2023-03-26T05:35:43.553Z,100.00
2023-03-26T05:36:45.278Z,100.00
2023-03-26T05:38:05.414Z,100.00
2023-03-26T05:39:06.914Z,100.00
2023-03-26T05:40:26.796Z,100.00
2023-03-26T05:41:36.662Z,100.00
2023-03-26T05:42:38.674Z,100.00
2023-03-26T05:44:03.318Z,100.00
2023-03-26T05:45:07.320Z,100.00
2023-03-26T05:46:09.102Z,100.00
2023-03-26T05:47:10.450Z,100.00
2023-03-26T05:48:14.651Z,100.00
2023-03-26T05:49:15.940Z,100.00
2023-03-26T05:50:17.581Z,100.00
2023-03-26T05:51:19.769Z,100.00
2023-03-26T05:52:57.256Z,100.00
2023-03-26T05:54:17.511Z,100.00
2023-03-26T05:55:37.682Z,100.00
2023-03-26T05:56:57.976Z,100.00
2023-03-26T05:58:18.208Z,100.00
2023-03-26T05:59:42.173Z,100.00
2023-03-26T06:01:20.294Z,100.00
2023-03-26T06:02:53.797Z,100.00
2023-03-26T06:04:21.716Z,100.00
2023-03-26T06:05:49.470Z,98.84
2023-03-26T06:07:04.345Z,98.88
2023-03-26T06:08:10.759Z,98.93
2023-03-26T06:09:13.395Z,99.65
2023-03-26T06:10:17.981Z,99.91
2023-03-26T06:11:20.946Z,100.00
2023-03-26T06:12:22.240Z,100.00
2023-03-26T06:13:24.206Z,99.31
2023-03-26T06:14:26.758Z,98.21
2023-03-26T06:15:44.367Z,98.41
2023-03-26T06:16:55.913Z,99.10
2023-03-26T06:17:57.515Z,98.42
2023-03-26T06:19:21.184Z,97.70
2023-03-26T06:20:46.804Z,97.32
2023-03-26T06:21:56.609Z,98.01
2023-03-26T06:23:03.410Z,99.18
2023-03-26T06:24:25.260Z,99.67
2023-03-26T06:25:45.616Z,99.28
2023-03-26T06:26:56.376Z,97.84
2023-03-26T06:28:25.298Z,96.81
2023-03-26T06:29:39.923Z,96.60
2023-03-26T06:30:53.361Z,95.62
2023-03-26T06:32:19.982Z,95.75
2023-03-26T06:33:42.096Z,95.57
2023-03-26T06:34:53.676Z,95.44
2023-03-26T06:35:55.335Z,94.41
2023-03-26T06:36:57.134Z,94.16
2023-03-26T06:37:59.123Z,93.07
2023-03-26T06:39:07.855Z,93.25
2023-03-26T06:40:11.113Z,92.87
2023-03-26T06:41:33.396Z,93.59
2023-03-26T06:43:08.267Z,93.95
2023-03-26T06:44:42.331Z,93.61
2023-03-26T06:46:03.214Z,93.41
2023-03-26T06:47:13.589Z,93.10
2023-03-26T06:48:40.910Z,92.54
2023-03-26T06:50:05.856Z,93.39
2023-03-26T06:51:15.273Z,94.71
2023-03-26T06:52:35.487Z,93.58
2023-03-26T06:54:02.790Z,94.89
2023-03-26T06:55:30.516Z,95.77
2023-03-26T06:56:56.891Z,96.07
2023-03-26T06:58:16.576Z,94.13
2023-03-26T06:59:43.972Z,95.61
2023-03-26T07:01:04.742Z,96.34
2023-03-26T07:02:24.984Z,96.17
2023-03-26T07:03:44.679Z,96.08
2023-03-26T07:05:04.841Z,96.19
2023-03-26T07:06:25.236Z,95.55
2023-03-26T07:07:55.493Z,96.27
2023-03-26T07:09:16.746Z,96.19
2023-03-26T07:10:44.277Z,96.14
2023-03-26T07:11:59.446Z,95.69
2023-03-26T07:13:00.726Z,96.28
2023-03-26T07:14:20.831Z,96.71
2023-03-26T07:15:34.581Z,96.97
2023-03-26T07:17:11.956Z,95.72
2023-03-26T07:18:34.952Z,95.61
2023-03-26T07:19:38.555Z,96.60
2023-03-26T07:20:40.018Z,96.97
2023-03-26T07:21:41.488Z,96.58
2023-03-26T07:22:57.431Z,95.27
2023-03-26T07:24:28.175Z,95.19
2023-03-26T07:25:43.205Z,95.47
2023-03-26T07:26:47.593Z,95.80
2023-03-26T07:28:10.542Z,96.10
2023-03-26T07:29:27.765Z,95.37
2023-03-26T07:30:49.303Z,97.32
2023-03-26T07:32:14.021Z,98.36
2023-03-26T07:33:49.260Z,99.06
2023-03-26T07:35:21.509Z,98.80
2023-03-26T07:36:38.196Z,99.24
2023-03-26T07:38:30.011Z,100.00
2023-03-26T07:39:50.130Z,100.00
2023-03-26T07:41:45.193Z,100.00
2023-03-26T07:43:20.501Z,100.00
2023-03-26T07:44:41.409Z,100.00
2023-03-26T07:46:02.648Z,100.00
2023-03-26T07:47:29.621Z,100.00
2023-03-26T07:48:50.876Z,100.00
2023-03-26T07:50:22.973Z,100.00
2023-03-26T07:51:42.528Z,100.00
2023-03-26T07:53:20.741Z,100.00
2023-03-26T07:54:35.798Z,100.00
2023-03-26T07:56:16.325Z,100.00
2023-03-26T07:57:49.176Z,100.00
2023-03-26T07:59:15.224Z,100.00
2023-03-26T08:00:47.105Z,100.00
2023-03-26T08:02:13.958Z,100.00
2023-03-26T08:03:23.355Z,100.00
2023-03-26T08:04:46.987Z,100.00
2023-03-26T08:06:17.767Z,100.00
2023-03-26T08:07:58.772Z,100.00
2023-03-26T08:09:17.030Z,100.00
2023-03-26T08:10:56.624Z,100.00
2023-03-26T08:12:04.229Z,100.00
2023-03-26T08:13:16.564Z,100.00
2023-03-26T08:14:26.728Z,100.00
2023-03-26T08:15:33.899Z,100.00
2023-03-26T08:16:54.060Z,100.00
2023-03-26T08:18:19.607Z,100.00
2023-03-26T08:19:37.294Z,100.00
2023-03-26T08:20:45.786Z,100.00
2023-03-26T08:21:53.946Z,100.00
2023-03-26T08:23:01.628Z,100.00
2023-03-26T08:24:29.418Z,100.00
2023-03-26T08:25:46.805Z,100.00
2023-03-26T08:26:58.505Z,100.00
2023-03-26T08:28:12.721Z,100.00
2023-03-26T08:29:18.297Z,100.00
2023-03-26T08:30:21.876Z,100.00
2023-03-26T08:31:43.593Z,100.00
2023-03-26T08:32:59.128Z,100.00
2023-03-26T08:34:00.517Z,100.00
2023-03-26T08:35:01.838Z,100.00
2023-03-26T08:36:04.836Z,100.00
2023-03-26T08:37:06.200Z,100.00
2023-03-26T08:38:10.448Z,100.00
2023-03-26T08:39:11.719Z,100.00
2023-03-26T08:40:18.065Z,100.00
2023-03-26T08:41:19.426Z,100.00
2023-03-26T08:42:34.280Z,100.00
2023-03-26T08:43:35.531Z,100.00
2023-03-26T08:44:39.570Z,100.00
2023-03-26T08:45:43.844Z,100.00
2023-03-26T08:46:57.536Z,100.00
2023-03-26T08:47:58.939Z,100.00
2023-03-26T08:49:00.307Z,100.00
2023-03-26T08:50:16.985Z,100.00
2023-03-26T08:51:38.785Z,100.00
2023-03-26T08:52:58.875Z,100.00
2023-03-26T08:54:10.667Z,100.00
2023-03-26T08:55:26.057Z,100.00
2023-03-26T08:56:39.513Z,100.00
2023-03-26T08:57:46.825Z,100.00
2023-03-26T08:58:51.111Z,100.00
2023-03-26T09:00:03.479Z,100.00
2023-03-26T09:01:23.756Z,100.00
2023-03-26T09:02:44.002Z,100.00
2023-03-26T09:03:45.338Z,100.00
2023-03-26T09:04:55.024Z,100.00
2023-03-26T09:06:15.087Z,100.00
2023-03-26T09:07:35.490Z,100.00
2023-03-26T09:08:54.489Z,100.00
2023-03-26T09:10:27.349Z,100.00
2023-03-26T09:11:37.667Z,100.00
2023-03-26T09:12:38.888Z,100.00
2023-03-26T09:14:01.956Z,100.00
2023-03-26T09:15:06.163Z,100.00
2023-03-26T09:16:07.740Z,100.00
2023-03-26T09:17:28.017Z,100.00
2023-03-26T09:18:30.001Z,100.00
2023-03-26T09:19:52.017Z,100.00
2023-03-26T09:21:24.205Z,100.00
2023-03-26T09:22:43.826Z,100.00
2023-03-26T09:23:57.274Z,100.00
2023-03-26T09:25:17.663Z,100.00
2023-03-26T09:26:45.305Z,100.00
2023-03-26T09:27:46.708Z,100.00
2023-03-26T09:29:20.695Z,100.00
2023-03-26T09:30:31.050Z,100.00
2023-03-26T09:31:38.865Z,100.00
2023-03-26T09:32:56.195Z,100.00
2023-03-26T09:34:13.117Z,100.00
2023-03-26T09:35:29.897Z,100.00
2023-03-26T09:36:52.996Z,100.00
2023-03-26T09:37:57.734Z,100.00
2023-03-26T09:39:20.989Z,100.00
2023-03-26T09:40:45.355Z,100.00
2023-03-26T09:41:46.779Z,100.00
2023-03-26T09:42:51.005Z,100.00
2023-03-26T09:43:55.319Z,100.00
2023-03-26T09:45:09.225Z,100.00
2023-03-26T09:46:13.528Z,100.00
2023-03-26T09:47:33.880Z,100.00
2023-03-26T09:48:35.211Z,100.00
2023-03-26T09:49:39.461Z,100.00
2023-03-26T09:50:59.375Z,100.00
2023-03-26T09:52:10.303Z,100.00
2023-03-26T09:53:15.893Z,100.00
2023-03-26T09:54:26.436Z,100.00
2023-03-26T09:55:34.993Z,100.00
2023-03-26T09:56:50.911Z,100.00
2023-03-26T09:57:54.979Z,99.76
2023-03-26T09:58:56.328Z,100.00
2023-03-26T10:00:06.352Z,100.00
2023-03-26T10:01:35.939Z,100.00
2023-03-26T10:02:58.519Z,98.26
2023-03-26T10:04:24.071Z,99.22
2023-03-26T10:05:25.713Z,99.99
2023-03-26T10:06:35.866Z,99.23
2023-03-26T10:07:56.104Z,97.72
2023-03-26T10:09:05.304Z,97.28
2023-03-26T10:10:14.908Z,98.25
2023-03-26T10:11:24.564Z,97.21
2023-03-26T10:12:33.865Z,97.90
2023-03-26T10:13:47.340Z,96.79
2023-03-26T10:15:06.768Z,94.30
2023-03-26T10:16:11.168Z,93.64
2023-03-26T10:17:31.376Z,94.09
2023-03-26T10:18:39.390Z,95.27
2023-03-26T10:19:57.560Z,95.43
2023-03-26T10:21:04.334Z,92.00
2023-03-26T10:22:12.222Z,94.19
2023-03-26T10:23:26.668Z,94.90
2023-03-26T10:24:48.486Z,93.11
2023-03-26T10:25:59.104Z,95.52
2023-03-26T10:27:20.712Z,94.95
2023-03-26T10:28:26.123Z,93.16
2023-03-26T10:29:45.988Z,93.67
2023-03-26T10:31:04.782Z,91.17
2023-03-26T10:32:16.566Z,93.68
2023-03-26T10:33:36.739Z,92.20
2023-03-26T10:34:53.511Z,88.87
2023-03-26T10:36:13.211Z,89.16
2023-03-26T10:37:25.714Z,87.49
2023-03-26T10:38:45.863Z,88.83
2023-03-26T10:39:47.161Z,82.98
2023-03-26T10:40:51.398Z,83.41
2023-03-26T10:42:09.011Z,81.70
2023-03-26T10:43:32.144Z,82.20
2023-03-26T10:44:42.690Z,81.92
2023-03-26T10:46:07.572Z,82.65
2023-03-26T10:47:20.963Z,79.50
2023-03-26T10:48:37.424Z,79.75
2023-03-26T10:50:00.367Z,73.06
2023-03-26T10:51:04.578Z,75.38
2023-03-26T10:52:13.264Z,75.58
2023-03-26T10:53:33.331Z,73.15
2023-03-26T10:54:45.610Z,72.46
2023-03-26T10:55:52.281Z,72.38
2023-03-26T10:56:55.309Z,71.89
2023-03-26T10:58:00.188Z,71.93
2023-03-26T10:59:06.303Z,72.90
2023-03-26T11:00:15.422Z,73.79
2023-03-26T11:01:28.955Z,72.50
2023-03-26T11:02:43.514Z,72.69
2023-03-26T11:03:49.668Z,72.78
2023-03-26T11:04:55.754Z,72.28
2023-03-26T11:05:57.171Z,71.85
2023-03-26T11:07:06.517Z,73.08
2023-03-26T11:08:32.967Z,74.11
2023-03-26T11:09:52.973Z,71.52
2023-03-26T11:11:04.098Z,70.52
2023-03-26T11:12:26.764Z,70.38
2023-03-26T11:13:45.991Z,69.29
2023-03-26T11:14:55.592Z,69.26
2023-03-26T11:16:00.700Z,68.32
2023-03-26T11:17:06.243Z,66.53
2023-03-26T11:18:07.560Z,62.77
2023-03-26T11:19:16.642Z,63.99
2023-03-26T11:20:17.900Z,63.89
2023-03-26T11:21:38.640Z,63.54
2023-03-26T11:22:59.474Z,64.22
2023-03-26T11:24:12.820Z,63.10
2023-03-26T11:25:31.829Z,60.97
2023-03-26T11:26:33.128Z,62.24
2023-03-26T11:27:37.764Z,62.25
2023-03-26T11:29:03.476Z,59.43
2023-03-26T11:30:12.827Z,62.46
2023-03-26T11:31:15.085Z,57.98
2023-03-26T11:32:20.489Z,59.53
2023-03-26T11:33:25.708Z,57.74
2023-03-26T11:34:37.096Z,58.63
2023-03-26T11:35:41.766Z,57.60
2023-03-26T11:36:48.850Z,57.12
2023-03-26T11:37:54.272Z,57.30
2023-03-26T11:38:57.687Z,56.87
2023-03-26T11:40:07.204Z,58.98
2023-03-26T11:41:14.520Z,58.39
2023-03-26T11:42:25.709Z,60.54
2023-03-26T11:43:35.920Z,61.13
2023-03-26T11:44:46.264Z,61.36
2023-03-26T11:45:48.673Z,61.66
2023-03-26T11:46:52.585Z,65.45
2023-03-26T11:47:57.121Z,67.86
2023-03-26T11:48:59.295Z,70.99
2023-03-26T11:50:03.254Z,72.43
2023-03-26T11:51:06.977Z,73.10
2023-03-26T11:52:10.976Z,74.36
2023-03-26T11:53:19.918Z,76.05
2023-03-26T11:54:21.225Z,78.41
2023-03-26T11:55:23.519Z,80.20
2023-03-26T11:56:28.167Z,80.84
2023-03-26T11:57:31.274Z,79.64
2023-03-26T11:58:34.995Z,76.92
2023-03-26T11:59:55.659Z,75.94
2023-03-26T12:00:58.115Z,77.19
2023-03-26T12:02:16.414Z,76.17
2023-03-26T12:03:19.035Z,76.47
2023-03-26T12:04:30.037Z,75.75
2023-03-26T12:05:48.854Z,76.11
2023-03-26T12:06:52.020Z,76.56
2023-03-26T12:07:54.729Z,77.12
2023-03-26T12:08:57.066Z,78.18
2023-03-26T12:10:18.785Z,79.29
2023-03-26T12:11:24.330Z,77.51
2023-03-26T12:12:27.129Z,77.89
2023-03-26T12:13:36.628Z,77.53
2023-03-26T12:14:42.574Z,77.89
2023-03-26T12:15:43.990Z,80.00
2023-03-26T12:16:58.870Z,80.20
2023-03-26T12:18:18.490Z,80.71
2023-03-26T12:19:20.273Z,82.27
2023-03-26T12:20:29.669Z,83.90
2023-03-26T12:21:42.947Z,81.43
2023-03-26T12:22:45.301Z,79.19
2023-03-26T12:23:56.157Z,79.61
2023-03-26T12:25:03.400Z,80.36
2023-03-26T12:26:11.236Z,78.05
2023-03-26T12:27:18.496Z,77.68
2023-03-26T12:28:19.903Z,75.82
2023-03-26T12:29:21.256Z,76.01
2023-03-26T12:30:24.520Z,74.72
2023-03-26T12:31:25.805Z,73.62
2023-03-26T12:32:45.321Z,74.96
2023-03-26T12:34:03.928Z,74.76
2023-03-26T12:35:06.528Z,72.88
2023-03-26T12:36:19.319Z,70.75
2023-03-26T12:37:33.534Z,72.34
2023-03-26T12:38:36.557Z,74.36
2023-03-26T12:40:07.726Z,72.25
2023-03-26T12:41:03.419Z,72.80
2023-03-26T12:44:43.346Z,68.87
2023-03-26T12:44:48.636Z,69.51
2023-03-26T12:45:01.354Z,67.85
2023-03-26T12:47:54.461Z,68.78
2023-03-26T12:48:00.516Z,63.65
2023-03-26T12:49:03.513Z,65.01
2023-03-26T12:50:05.278Z,65.58
2023-03-26T12:51:06.674Z,64.37
2023-03-26T12:52:30.912Z,65.10
2023-03-26T12:53:46.115Z,65.26
2023-03-26T12:54:54.039Z,62.14
2023-03-26T12:56:08.392Z,61.80
2023-03-26T12:57:23.590Z,59.18
2023-03-26T12:58:43.865Z,57.55
2023-03-26T12:59:57.605Z,58.42
2023-03-26T13:00:59.203Z,58.36
2023-03-26T13:02:19.591Z,59.28
2023-03-26T13:03:29.800Z,59.28
2023-03-26T13:04:37.182Z,60.04
2023-03-26T13:05:44.492Z,58.41
2023-03-26T13:07:00.599Z,56.21
2023-03-26T13:08:13.283Z,56.78
2023-03-26T13:09:27.761Z,56.24
2023-03-26T13:10:48.285Z,57.51
2023-03-26T13:11:54.257Z,58.31
2023-03-26T13:13:01.241Z,56.66
2023-03-26T13:14:05.287Z,56.74
2023-03-26T13:15:09.736Z,56.27
2023-03-26T13:16:20.543Z,58.29
2023-03-26T13:17:25.956Z,56.13
2023-03-26T13:18:44.008Z,57.21
2023-03-26T13:20:04.112Z,58.11
2023-03-26T13:21:20.076Z,57.80
2023-03-26T13:22:21.661Z,57.93
2023-03-26T13:23:37.545Z,57.28
2023-03-26T13:24:41.783Z,56.63
2023-03-26T13:25:43.024Z,57.13
2023-03-26T13:26:53.226Z,57.56
2023-03-26T13:28:13.579Z,56.07
2023-03-26T13:29:20.384Z,54.91
2023-03-26T13:30:36.405Z,56.69
2023-03-26T13:31:49.845Z,57.83
2023-03-26T13:32:56.507Z,57.45
2023-03-26T13:34:03.325Z,56.76
2023-03-26T13:35:25.962Z,55.84
2023-03-26T13:36:27.221Z,58.50
2023-03-26T13:37:34.862Z,58.47
2023-03-26T13:38:36.256Z,59.72
2023-03-26T13:39:50.287Z,60.46
2023-03-26T13:40:58.623Z,60.14
2023-03-26T13:42:14.970Z,59.45
2023-03-26T13:43:19.219Z,60.45
2023-03-26T13:44:39.763Z,58.19
2023-03-26T13:45:46.564Z,59.59
2023-03-26T13:46:50.787Z,59.55
2023-03-26T13:47:55.255Z,59.74
2023-03-26T13:49:08.564Z,59.58
2023-03-26T13:50:26.162Z,60.95
2023-03-26T13:51:37.701Z,60.35
2023-03-26T13:52:47.675Z,61.85
2023-03-26T13:53:52.809Z,62.20
2023-03-26T13:55:16.752Z,63.00
2023-03-26T13:56:22.036Z,61.65
2023-03-26T13:57:34.353Z,62.58
2023-03-26T13:58:42.748Z,59.92
2023-03-26T13:59:47.101Z,61.11
2023-03-26T14:00:57.986Z,62.22
2023-03-26T14:02:03.716Z,61.33
2023-03-26T14:03:09.850Z,60.33
2023-03-26T14:04:35.040Z,60.23
2023-03-26T14:05:42.193Z,60.57
2023-03-26T14:06:49.415Z,60.27
2023-03-26T14:07:53.563Z,59.13
2023-03-26T14:09:01.123Z,60.27
2023-03-26T14:10:12.123Z,59.42
2023-03-26T14:11:17.364Z,59.54
2023-03-26T14:12:26.881Z,59.57
2023-03-26T14:13:36.002Z,59.51
2023-03-26T14:14:40.616Z,59.67
2023-03-26T14:15:44.476Z,60.65
2023-03-26T14:16:48.512Z,61.33
2023-03-26T14:18:03.434Z,61.31
2023-03-26T14:19:16.973Z,61.23
2023-03-26T14:20:18.603Z,60.84
2023-03-26T14:21:36.988Z,62.19
2023-03-26T14:22:41.411Z,62.40
2023-03-26T14:24:01.120Z,62.15
2023-03-26T14:25:17.396Z,63.04
2023-03-26T14:26:21.936Z,63.01
2023-03-26T14:27:42.224Z,63.26
2023-03-26T14:29:03.519Z,63.82
2023-03-26T14:30:17.252Z,63.75
2023-03-26T14:31:33.533Z,64.09
2023-03-26T14:32:53.567Z,62.75
2023-03-26T14:34:06.701Z,61.86
2023-03-26T14:35:10.413Z,60.57
2023-03-26T14:36:30.527Z,61.31
2023-03-26T14:37:31.742Z,59.89
2023-03-26T14:38:53.359Z,61.15
2023-03-26T14:39:59.140Z,60.60
2023-03-26T14:41:19.234Z,60.81
2023-03-26T14:42:41.613Z,61.68
2023-03-26T14:43:48.704Z,61.22
2023-03-26T14:44:55.948Z,62.36
2023-03-26T14:45:57.210Z,62.70
2023-03-26T14:47:14.843Z,61.33
2023-03-26T14:48:32.671Z,60.90
2023-03-26T14:49:45.736Z,58.81
2023-03-26T14:51:05.990Z,61.04